Latest Coastal Weather Observations for Willis Island

IDQ60701

Issued at 8:31 pm EST Sunday 20 May 2018 (issued every 10 minutes, with the page automatically refreshed every 10 minutes)

About coastal observations | Map of coastal stations | Coastal observations for QLD | Marine services | Other Formats
Station Details ID: 200283 Name: WILLIS ISLAND Lat: -16.29 Lon: 149.97 Height: 9.29 m
Data from the previous 72 hours. | See also: Recent months at Willis Island
Date/Time
EST
Temp
°C
Wind Pressure Rain since
9am
mm
Weather Cloud Vis
km
Sea
Height
m
Swell
Dir  Spd
kts
Gust
kts
hPa Trend Height
m
Period
s
Dir
20/08:30pm 26.3 SE 25 32 1015.0 - 0.4 - - - - - - -
20/08:00pm 26.3 SE 25 30 1014.8 - 0.4 - - - - - - -
20/07:30pm 26.3 SE 25 29 1014.5 - 0.4 - - - - - - -
20/07:00pm 26.0 SE 24 27 1014.1 - 0.4 - - - - - - -
20/06:30pm 25.9 SE 25 33 1013.7 - 0.4 - - - - - - -
20/06:00pm 25.9 SE 24 29 1013.6 S 0.4 Distant precip. Mostly cloudy 15 3 1.5 8 SE
20/05:30pm 26.2 SE 24 29 1013.3 - 0.4 - - - - - - -
20/05:00pm 25.9 SE 22 25 1013.1 - 0.4 - - - - - - -
20/04:30pm 25.2 SE 24 29 1013.0 - 0.4 - - - - - - -
20/04:00pm 25.1 SE 24 29 1012.9 - 0.4 - - - - - - -
20/03:30pm 25.2 SE 24 28 1012.5 - 0.4 - - - - - - -
20/03:00pm 25.4 SE 24 28 1012.4 R 0.0 Showers Cloudy 3 3 1.5 8 SE
20/02:30pm 26.6 SE 24 29 1012.1 - 0.0 - - - - - - -
20/02:00pm 26.2 SE 25 28 1012.5 - 0.0 - - - - - - -
20/01:30pm 25.6 SE 25 33 1012.7 - 0.0 - - - - - - -
20/01:00pm 26.1 ESE 26 33 1013.0 - 0.0 - - - - - - -
20/12:30pm 27.0 SE 25 30 1013.3 - 0.0 - - - - - - -
20/12:00pm 25.9 SE 22 29 1013.4 R 0.0 Showers Mostly cloudy 20 2 1.5 8 SE
20/11:48am 25.3 SE 25 35 1013.6 - 0.0 - - - - - - -
20/11:30am 27.1 SE 24 29 1013.7 - 0.0 - - - - - - -
20/11:00am 27.1 SE 26 29 1013.9 - 0.0 - - - - - - -
20/10:30am 27.3 ESE 26 31 1014.0 - 0.0 - - - - - - -
20/10:00am 27.0 SE 26 31 1014.3 - 0.0 - - - - - - -
20/09:30am 27.2 SE 25 30 1014.4 - 0.0 - - - - - - -
20/09:00am 27.2 SE 26 30 1014.1 R 7.6 Recent precip. Mostly cloudy 20 2 1.5 8 SE
20/08:30am 26.6 SE 24 30 1014.0 - 7.4 - - - - - - -
20/08:00am 26.2 SE 26 31 1013.8 - 7.4 - - - - - - -
20/07:30am 26.1 SE 26 30 1013.4 - 7.4 - - - - - - -
20/07:00am 25.6 SE 26 31 1013.2 - 7.4 - - - - - - -
20/06:30am 25.7 SE 25 30 1012.6 - 7.4 - - - - - - -
20/06:00am 25.6 SE 25 30 1012.5 R 7.4 Fine Mostly cloudy 20 2 1.5 8 SE
20/05:30am 25.7 SE 25 30 1012.3 - 7.4 - - - - - - -
20/05:00am 25.7 SE 27 30 1012.0 - 7.4 - - - - - - -
20/04:30am 25.6 SE 26 29 1011.5 - 7.4 - - - - - - -
20/04:00am 25.8 SE 24 28 1011.7 - 7.4 - - - - - - -
20/03:30am 25.7 SE 25 30 1011.8 - 7.4 - - - - - - -
20/03:00am 25.5 SE 24 28 1011.6 F 7.4 - - - - - - -
20/02:30am 25.8 SE 23 29 1011.8 - 7.4 - - - - - - -
20/02:00am 25.7 SE 25 29 1012.1 - 7.4 - - - - - - -
20/01:30am 25.8 SE 25 30 1012.3 - 7.4 - - - - - - -
20/01:00am 25.6 SE 25 29 1012.5 - 7.4 - - - - - - -
20/12:30am 25.4 SE 25 28 1013.1 - 7.4 - - - - - - -
20/12:00am 25.6 SE 24 28 1013.3 F 7.4 - - - - - - -
 
Date/Time
EST
Temp
°C
Wind Pressure Rain since
9am
mm
Weather Cloud Vis
km
Sea
Height
m
Swell
Dir  Spd
kts
Gust
kts
hPa Trend Height
m
Period
s
Dir
19/11:30pm 25.8 SE 26 31 1013.4 - 7.4 - - - - - - -
19/11:00pm 25.6 SE 24 29 1013.6 - 7.4 - - - - - - -
19/10:30pm 25.4 SE 24 28 1013.7 - 7.4 - - - - - - -
19/10:00pm 25.5 SE 24 29 1014.0 - 7.4 - - - - - - -
19/09:30pm 25.4 SE 24 28 1013.8 - 7.4 - - - - - - -
19/09:00pm 25.2 SE 27 32 1014.0 S 7.4 Distant precip. Cloudy 20 - - - CF
19/08:30pm 25.0 SE 25 29 1013.7 - 7.4 - - - - - - -
19/08:00pm 25.2 SE 25 31 1013.6 - 7.4 - - - - - - -
19/07:30pm 25.2 SE 25 29 1013.1 - 7.4 - - - - - - -
19/07:00pm 24.4 SE 26 30 1012.7 - 7.4 - - - - - - -
19/06:30pm 24.3 SE 25 29 1012.6 - 7.4 - - - - - - -
19/06:00pm 24.2 SE 25 29 1012.5 R 7.2 Showers Cloudy 3 2 1.3 8 SE
19/05:30pm 23.8 SE 24 30 1012.2 - 5.8 - - - - - - -
19/05:00pm 24.3 SE 21 25 1011.9 - 3.6 - - - - - - -
19/04:30pm 24.9 SE 23 29 1011.5 - 1.8 - - - - - - -
19/04:00pm 25.1 SE 21 25 1011.1 - 1.6 - - - - - - -
19/03:30pm 24.0 ESE 25 29 1011.0 - 0.8 - - - - - - -
19/03:00pm 25.4 SE 22 26 1010.8 R 0.0 Showers Cloudy 8 2 1.5 0 SE
19/02:30pm 26.7 ESE 21 24 1010.9 - 0.0 - - - - - - -
19/02:00pm 27.1 ESE 20 24 1010.9 - 0.0 - - - - - - -
19/01:30pm 27.2 ESE 22 26 1011.1 - 0.0 - - - - - - -
19/01:00pm 27.4 ESE 22 25 1011.5 - 0.0 - - - - - - -
19/12:30pm 27.1 ESE 22 25 1011.7 - 0.0 - - - - - - -
19/12:00pm 26.7 ESE 21 26 1012.0 F 0.0 Distant precip. Mostly cloudy 20 2 1.5 8 SE
19/11:30am 27.3 ESE 21 25 1012.3 - 0.0 - - - - - - -
19/11:00am 27.0 ESE 21 25 1012.6 - 0.0 - - - - - - -
19/10:30am 26.8 ESE 21 27 1012.8 - 0.0 - - - - - - -
19/10:00am 26.6 ESE 23 27 1013.0 - 0.0 - - - - - - -
19/09:30am 26.1 SE 24 27 1013.3 - 0.0 - - - - - - -
19/09:00am 26.0 SE 21 24 1013.5 F 13.6 Fine Cloudy 20 2 1.5 8 SE
19/08:30am 26.1 ESE 21 25 1013.3 - 13.6 - - - - - - -
19/08:00am 25.7 ESE 21 26 1013.1 - 13.6 - - - - - - -
19/07:30am 25.4 SE 22 25 1013.1 - 13.6 - - - - - - -
19/07:00am 25.1 SE 21 24 1012.8 - 13.6 - - - - - - -
19/06:30am 24.9 SE 21 24 1012.4 - 13.6 - - - - - - -
19/06:00am 24.9 SE 19 23 1012.1 R 13.6 Fine Cloudy 20 2 1.5 8 SE
19/05:30am 24.5 SE 21 25 1011.6 - 13.6 - - - - - - -
19/05:00am 24.6 ESE 23 26 1011.5 - 13.6 - - - - - - -
19/04:30am 23.9 SE 20 24 1011.5 - 13.6 - - - - - - -
19/04:00am 24.1 SE 20 24 1011.4 - 13.6 - - - - - - -
19/03:30am 23.8 SE 23 27 1011.3 - 13.6 - - - - - - -
19/03:00am 23.2 ESE 23 29 1011.4 R 13.4 Rain - - - - - -
19/02:30am 23.2 ESE 21 25 1011.7 - 13.0 - - - - - - -
19/02:00am 22.3 ESE 27 32 1012.1 - 12.0 - - - - - - -
19/01:30am 22.6 SE 25 30 1012.3 - 10.8 - - - - - - -
19/01:00am 22.5 SE 27 33 1012.5 - 9.8 - - - - - - -
19/12:30am 23.3 SE 26 32 1012.6 - 6.4 - - - - - - -
19/12:00am 22.9 SE 26 30 1012.7 R 5.8 Recent precip. - - - - - -
 
Date/Time
EST
Temp
°C
Wind Pressure Rain since
9am
mm
Weather Cloud Vis
km
Sea
Height
m
Swell
Dir  Spd
kts
Gust
kts
hPa Trend Height
m
Period
s
Dir
18/11:30pm 23.2 ESE 24 27 1012.9 - 4.8 - - - - - - -
18/11:00pm 23.6 ESE 23 26 1013.2 - 4.4 - - - - - - -
18/10:30pm 23.9 ESE 25 28 1013.2 - 3.0 - - - - - - -
18/10:00pm 23.9 ESE 25 30 1013.3 - 2.2 - - - - - - -
18/09:30pm 24.2 ESE 24 28 1013.0 - 1.8 - - - - - - -
18/09:00pm 24.1 SE 27 31 1013.1 S 1.4 Rain Cloudy 15 - - - CF
18/08:30pm 24.1 SE 27 31 1012.7 - 1.0 - - - - - - -
18/08:00pm 24.2 SE 27 32 1012.7 - 1.0 - - - - - - -
18/07:30pm 24.0 SE 29 33 1012.4 - 1.0 - - - - - - -
18/07:00pm 23.9 SE 29 34 1012.3 - 1.0 - - - - - - -
18/06:30pm 23.7 SE 27 31 1011.9 - 1.0 - - - - - - -
18/06:00pm 23.9 SE 24 28 1011.6 F 1.0 Showers Cloudy 15 3 1.0 10 SE
18/05:30pm 23.6 SE 24 27 1011.3 - 1.0 - - - - - - -
18/05:00pm 23.5 SE 26 29 1011.3 - 0.8 - - - - - - -
18/04:30pm 23.3 SE 27 34 1011.3 - 0.4 - - - - - - -
18/04:00pm 23.9 SE 27 32 1011.3 - 0.0 - - - - - - -
18/03:30pm 24.4 SE 27 35 1010.9 - 0.0 - - - - - - -
18/03:00pm 24.9 SE 25 32 1010.9 R 0.0 Showers Cloudy 15 3 1.0 11 SE
18/02:30pm 24.7 SE 24 30 1011.0 - 0.0 - - - - - - -
18/02:00pm 23.7 SE 28 34 1011.1 - 0.0 - - - - - - -
18/01:30pm 24.5 SSE 26 31 1011.2 - 0.0 - - - - - - -
18/01:00pm 25.4 SE 25 30 1011.5 - 0.0 - - - - - - -
18/12:30pm 24.5 SE 25 33 1011.9 - 0.0 - - - - - - -
18/12:00pm 25.8 SE 25 30 1012.0 F 0.0 Distant precip. Cloudy 18 2 1.2 8 SE
18/11:30am 25.6 SE 23 27 1012.4 - 0.0 - - - - - - -
18/11:00am 25.8 SE 24 28 1012.7 - 0.0 - - - - - - -
18/10:30am 25.3 SE 25 29 1013.2 - 0.0 - - - - - - -
18/10:00am 25.5 SE 24 27 1013.4 - 0.0 - - - - - - -
18/09:30am 24.9 SE 24 28 1013.6 - 0.0 - - - - - - -
18/09:00am 24.2 SE 23 28 1013.6 R 8.0 Showers Cloudy 15 2 1.5 8 SE
18/08:30am 23.8 SE 25 32 1013.4 - 7.6 - - - - - - -
18/08:00am 25.1 SE 25 29 1012.9 - 7.6 - - - - - - -
18/07:30am 24.4 SE 25 30 1012.7 - 7.6 - - - - - - -
18/07:00am 24.1 SE 24 29 1012.2 - 7.6 - - - - - - -
18/06:30am 24.8 SE 23 27 1012.1 - 7.6 - - - - - - -
18/06:00am 24.8 SSE 24 29 1011.7 F 7.6 Distant precip. Cloudy 20 2 1.5 8 SE
18/05:30am 24.9 SE 25 28 1011.4 - 7.6 - - - - - - -
18/05:00am 24.7 SE 25 30 1011.3 - 7.6 - - - - - - -
18/04:30am 24.2 SE 25 28 1011.4 - 7.6 - - - - - - -
18/04:00am 24.4 SE 25 28 1011.2 - 7.6 - - - - - - -
18/03:30am 24.7 SE 23 28 1011.2 - 7.6 - - - - - - -
18/03:00am 24.5 SE 23 28 1011.3 R 7.6 - - - - - - -
18/02:30am 24.5 SE 23 27 1011.4 - 7.6 - - - - - - -
18/02:00am 24.4 SE 23 28 1011.6 - 7.6 - - - - - - -
18/01:30am 24.3 SE 25 30 1012.0 - 7.6 - - - - - - -
18/01:00am 24.2 SE 24 27 1012.2 - 7.6 - - - - - - -
18/12:30am 24.1 SE 24 28 1012.5 - 7.6 - - - - - - -
18/12:00am 23.3 SE 22 26 1012.6 R 7.6 Recent precip. - - - - - -
 
Date/Time
EST
Temp
°C
Wind Pressure Rain since
9am
mm
Weather Cloud Vis
km
Sea
Height
m
Swell
Dir  Spd
kts
Gust
kts
hPa Trend Height
m
Period
s
Dir
17/11:30pm 22.7 SE 25 28 1012.9 - 7.4 - - - - - - -
17/11:00pm 23.4 SE 24 28 1013.2 - 7.0 - - - - - - -
17/10:30pm 23.3 SE 25 29 1013.2 - 6.2 - - - - - - -
17/10:00pm 23.2 SE 26 30 1013.2 - 5.0 - - - - - - -
17/09:30pm 23.2 SE 26 32 1013.0 - 4.2 - - - - - - -
17/09:00pm 23.3 SE 25 30 1013.1 F 3.4 Showers Cloudy 15 - - - CF

Other Formats:

Comma delimited format used in spreadsheet applications
http://www.bom.gov.au/fwo/IDQ60701/IDQ60701.94299.axf

JavaScript Object Notation format (JSON) in row-major order
http://www.bom.gov.au/fwo/IDQ60701/IDQ60701.94299.json